Time;durP1;ratioP1;P1;durP2;ratioP2;P2;SDS_P1;SDS_P2;PMS_P1;PMS_P2;Temp;Humidity;BMP_temperature;BMP_pressure;BME280_temperature;BME280_humidity;BME280_pressure;Samples;Min_cycle;Max_cycle;Signal;HPM_P1;HPM_P2
2023/06/24 00:02:08;;;;;;;;;;;;;;;10.85;59.52;96589.06;6250922;28;19939;-69
2023/06/24 00:05:14;;;;;;;;;;;;;;;10.89;59.55;96593.13;6266808;28;19927;-69
2023/06/24 00:08:19;;;;;;;;;;;;;;;10.89;59.40;96595.75;6275600;28;19925;-69
2023/06/24 00:11:20;;;;;;;;;;;;;;;10.89;59.51;96595.75;6248666;28;20013;-69
2023/06/24 00:14:26;;;;;;;;;;;;;;;10.96;59.37;96591.75;6266850;28;19921;-68
2023/06/24 00:17:36;;;;;;;;;;;;;;;10.97;59.41;96598.69;6267500;28;19920;-68
2023/06/24 00:20:43;;;;;;;;;;;;;;;10.94;59.25;96601.56;6267562;28;20019;-69
2023/06/24 00:23:49;;;;;;;;;;;;;;;10.91;59.40;96596.50;6271972;28;20411;-69
2023/06/24 00:26:53;;;;;;;;;;;;;;;10.90;59.53;96593.03;6272594;28;19978;-68
2023/06/24 00:29:55;;;;;;;;;;;;;;;10.92;59.62;96595.56;6272088;28;20007;-68
2023/06/24 00:32:59;;;;;;;;;;;;;;;10.91;59.46;96602.59;6270400;28;20336;-69
2023/06/24 00:36:03;;;;;;;;;;;;;;;10.92;59.61;96606.06;6263181;28;19955;-69
2023/06/24 00:39:06;;;;;;;;;;;;;;;10.91;59.65;96599.13;6270133;28;19978;-69
2023/06/24 00:42:10;;;;;;;;;;;;;;;10.91;59.52;96607.03;6273213;28;20019;-69
2023/06/24 00:45:14;;;;;;;;;;;;;;;10.90;59.61;96606.19;6270282;28;19955;-69
2023/06/24 00:48:18;;;;;;;;;;;;;;;10.91;59.64;96604.41;6230714;28;19921;-70
2023/06/24 00:51:26;;;;;;;;;;;;;;;10.89;59.73;96606.28;6257725;28;20341;-70
2023/06/24 00:54:30;;;;;;;;;;;;;;;10.87;59.61;96608.19;6270260;28;19921;-68
2023/06/24 00:57:37;;;;;;;;;;;;;;;10.85;59.60;96604.84;6272305;28;19920;-69
2023/06/24 01:00:40;;;;;;;;;;;;;;;10.85;59.64;96604.84;6271951;28;19921;-69
2023/06/24 01:03:42;;;;;;;;;;;;;;;10.86;59.80;96607.34;6271770;28;19920;-68
2023/06/24 01:06:45;;;;;;;;;;;;;;;10.89;59.66;96601.03;6270377;28;20459;-68
2023/06/24 01:09:49;;;;;;;;;;;;;;;10.93;59.75;96598.09;6270672;28;19921;-68
2023/06/24 01:12:50;;;;;;;;;;;;;;;10.99;59.53;96602.06;6265898;28;19920;-69
2023/06/24 01:15:53;;;;;;;;;;;;;;;11.02;59.48;96607.13;6252464;28;19968;-69
2023/06/24 01:18:59;;;;;;;;;;;;;;;11.04;59.43;96602.59;6267522;28;19926;-69
2023/06/24 01:22:15;;;;;;;;;;;;;;;11.08;59.30;96606.69;6270610;28;20362;-69
2023/06/24 01:25:42;;;;;;;;;;;;;;;11.13;59.27;96603.72;6269248;28;19943;-69
2023/06/24 01:28:46;;;;;;;;;;;;;;;11.15;59.10;96605.31;6226441;28;20444;-69
2023/06/24 01:32:02;;;;;;;;;;;;;;;11.19;59.13;96593.59;6272227;28;19927;-69
2023/06/24 01:35:12;;;;;;;;;;;;;;;11.28;59.17;96604.41;6273469;28;19920;-70
2023/06/24 01:38:23;;;;;;;;;;;;;;;11.33;58.48;96595.22;6270516;28;19920;-68
2023/06/24 01:41:25;;;;;;;;;;;;;;;11.36;58.54;96597.66;6267540;28;19927;-69
2023/06/24 01:44:28;;;;;;;;;;;;;;;11.41;58.60;96597.31;6267727;28;19924;-68
2023/06/24 01:47:32;;;;;;;;;;;;;;;11.45;58.65;96602.25;6269093;28;19925;-70
2023/06/24 01:50:36;;;;;;;;;;;;;;;11.53;58.32;96601.69;6271279;28;20012;-68
2023/06/24 01:53:42;;;;;;;;;;;;;;;11.60;58.08;96602.06;6269233;28;19920;-68
2023/06/24 01:56:47;;;;;;;;;;;;;;;11.68;57.51;96597.91;6268270;28;19924;-68
2023/06/24 01:59:49;;;;;;;;;;;;;;;11.81;57.48;96599.66;6267790;28;20310;-69
2023/06/24 02:02:51;;;;;;;;;;;;;;;11.87;57.35;96605.34;6264527;28;20287;-68
2023/06/24 02:05:57;;;;;;;;;;;;;;;12.01;56.98;96612.22;6258985;28;19927;-68
2023/06/24 02:09:01;;;;;;;;;;;;;;;12.13;56.57;96611.31;6268351;28;19921;-69
2023/06/24 02:12:03;;;;;;;;;;;;;;;12.28;56.03;96613.72;6265701;28;20401;-69
2023/06/24 02:15:06;;;;;;;;;;;;;;;12.33;55.98;96611.59;6267071;28;20046;-69
2023/06/24 02:18:09;;;;;;;;;;;;;;;12.53;55.64;96612.72;6269293;28;19927;-70
2023/06/24 02:21:11;;;;;;;;;;;;;;;12.57;55.32;96608.91;6267469;28;19920;-69
2023/06/24 02:24:13;;;;;;;;;;;;;;;12.64;55.23;96609.25;6270083;28;19943;-69
2023/06/24 02:27:17;;;;;;;;;;;;;;;12.71;54.90;96608.66;6269238;28;19935;-69
2023/06/24 02:30:19;;;;;;;;;;;;;;;12.94;54.42;96614.78;6266413;28;20294;-69
2023/06/24 02:33:21;;;;;;;;;;;;;;;12.97;53.89;96614.53;6268289;28;20019;-68
2023/06/24 02:36:22;;;;;;;;;;;;;;;12.96;54.20;96615.47;6267185;28;19920;-69
2023/06/24 02:39:23;;;;;;;;;;;;;;;13.09;53.91;96622.47;6269789;28;19927;-68
2023/06/24 02:42:27;;;;;;;;;;;;;;;13.14;53.76;96622.94;6251408;28;19921;-68
2023/06/24 02:45:28;;;;;;;;;;;;;;;13.36;53.23;96612.38;6248083;28;19927;-69
2023/06/24 02:48:30;;;;;;;;;;;;;;;13.46;52.83;96615.94;6269722;28;20390;-69
2023/06/24 02:51:34;;;;;;;;;;;;;;;13.64;52.59;96626.00;6262137;28;19920;-69
2023/06/24 02:54:39;;;;;;;;;;;;;;;13.73;51.68;96621.75;6269679;28;19927;-67
2023/06/24 02:57:44;;;;;;;;;;;;;;;13.61;52.16;96626.25;6279493;28;19921;-69
2023/06/24 03:00:49;;;;;;;;;;;;;;;13.76;51.64;96630.31;6286817;28;19976;-69
2023/06/24 03:03:52;;;;;;;;;;;;;;;13.87;51.02;96627.63;6268699;28;19921;-69
2023/06/24 03:06:59;;;;;;;;;;;;;;;14.00;50.47;96631.88;6268884;28;19920;-69
2023/06/24 03:10:04;;;;;;;;;;;;;;;14.00;50.34;96624.78;6267315;28;19929;-69
2023/06/24 03:13:08;;;;;;;;;;;;;;;14.10;50.14;96632.81;6266054;28;19920;-69
2023/06/24 03:16:14;;;;;;;;;;;;;;;14.05;50.33;96635.00;6266244;28;19920;-69
2023/06/24 03:19:20;;;;;;;;;;;;;;;14.08;50.32;96640.03;6268605;28;20339;-69
2023/06/24 03:22:24;;;;;;;;;;;;;;;14.31;49.28;96643.41;6267327;28;19921;-69
2023/06/24 03:25:25;;;;;;;;;;;;;;;14.22;49.49;96642.38;6267601;28;19927;-68
2023/06/24 03:28:30;;;;;;;;;;;;;;;14.32;49.41;96638.00;6265546;28;19927;-68
2023/06/24 03:31:31;;;;;;;;;;;;;;;14.44;49.29;96640.59;6267507;28;19923;-69
2023/06/24 03:34:37;;;;;;;;;;;;;;;14.60;49.00;96646.28;6271656;28;19920;-69
2023/06/24 03:37:38;;;;;;;;;;;;;;;14.72;48.68;96639.09;6271644;28;20322;-69
2023/06/24 03:40:41;;;;;;;;;;;;;;;14.85;48.19;96636.25;6266334;28;19920;-69
2023/06/24 03:43:45;;;;;;;;;;;;;;;14.97;47.76;96648.44;6268413;28;19927;-69
2023/06/24 03:46:45;;;;;;;;;;;;;;;15.03;47.86;96642.59;6264227;28;19932;-69
2023/06/24 03:49:46;;;;;;;;;;;;;;;15.13;47.42;96638.19;6266156;28;19974;-69
2023/06/24 03:52:50;;;;;;;;;;;;;;;15.36;46.41;96643.31;6266329;28;19935;-69
2023/06/24 03:55:53;;;;;;;;;;;;;;;15.57;45.37;96645.84;6266089;28;19928;-70
2023/06/24 03:59:00;;;;;;;;;;;;;;;15.65;44.97;96649.53;6266899;28;20009;-68
2023/06/24 04:02:07;;;;;;;;;;;;;;;15.62;45.47;96641.00;6267048;28;19921;-68
2023/06/24 04:05:09;;;;;;;;;;;;;;;15.86;44.98;96640.66;6268218;28;20023;-69
2023/06/24 04:08:10;;;;;;;;;;;;;;;16.10;44.47;96638.41;6237906;28;19943;-69
2023/06/24 04:11:12;;;;;;;;;;;;;;;16.39;44.39;96645.56;6264524;28;19931;-70
2023/06/24 04:14:15;;;;;;;;;;;;;;;16.79;43.50;96641.91;6261277;28;20447;-69
2023/06/24 04:17:19;;;;;;;;;;;;;;;17.20;42.54;96639.78;6259090;28;19929;-68
2023/06/24 04:20:20;;;;;;;;;;;;;;;17.61;40.97;96635.81;6253369;28;20393;-69
2023/06/24 04:23:25;;;;;;;;;;;;;;;17.78;40.81;96636.88;6262076;28;20434;-69
2023/06/24 04:26:30;;;;;;;;;;;;;;;18.03;40.02;96645.06;6259811;28;19925;-69
2023/06/24 04:29:34;;;;;;;;;;;;;;;18.29;39.82;96640.69;6262271;28;19921;-68
2023/06/24 04:32:37;;;;;;;;;;;;;;;18.52;38.25;96645.53;6265625;28;19920;-68
2023/06/24 04:35:41;;;;;;;;;;;;;;;18.60;37.57;96633.09;6264570;28;19950;-69
2023/06/24 04:38:47;;;;;;;;;;;;;;;18.50;38.62;96636.84;6258418;28;19925;-71
2023/06/24 04:41:48;;;;;;;;;;;;;;;18.75;37.76;96641.41;6247525;28;19924;-69
2023/06/24 04:44:52;;;;;;;;;;;;;;;18.77;37.66;96639.44;6255630;28;19920;-69
2023/06/24 04:47:55;;;;;;;;;;;;;;;19.22;37.43;96638.34;6263510;28;19921;-70
2023/06/24 04:51:00;;;;;;;;;;;;;;;20.92;33.75;96634.50;6264295;28;19921;-69
2023/06/24 04:54:04;;;;;;;;;;;;;;;22.94;31.42;96639.97;6267197;28;20400;-69
2023/06/24 04:57:06;;;;;;;;;;;;;;;25.36;29.39;96655.72;6280094;28;19925;-69
2023/06/24 05:00:10;;;;;;;;;;;;;;;28.19;27.68;96653.72;6290522;28;20337;-70
2023/06/24 05:03:13;;;;;;;;;;;;;;;30.63;26.41;96656.16;6264955;28;19951;-70
2023/06/24 05:06:15;;;;;;;;;;;;;;;33.08;24.55;96668.84;6264511;28;19932;-69
2023/06/24 05:09:21;;;;;;;;;;;;;;;35.63;23.67;96659.25;6268398;28;19921;-69
2023/06/24 05:12:25;;;;;;;;;;;;;;;37.50;21.07;96660.03;6251204;28;19924;-69
2023/06/24 05:15:28;;;;;;;;;;;;;;;39.29;19.25;96655.59;6270954;28;19924;-71
2023/06/24 05:18:34;;;;;;;;;;;;;;;40.53;16.72;96656.72;6266479;28;19921;-70
2023/06/24 05:21:35;;;;;;;;;;;;;;;41.89;15.15;96659.47;6248618;28;19924;-71
2023/06/24 05:24:37;;;;;;;;;;;;;;;43.82;16.25;96657.25;6267451;28;20014;-71
2023/06/24 05:27:39;;;;;;;;;;;;;;;45.43;14.27;96660.13;6268473;28;19927;-71
2023/06/24 05:30:44;;;;;;;;;;;;;;;46.86;13.97;96664.41;6254015;28;19928;-70
2023/06/24 05:33:46;;;;;;;;;;;;;;;48.32;14.36;96663.19;6262902;28;19925;-70
2023/06/24 05:36:49;;;;;;;;;;;;;;;49.97;14.18;96673.56;6266071;28;19920;-70
2023/06/24 05:40:15;;;;;;;;;;;;;;;51.24;13.11;96667.69;6263053;28;19928;-71
2023/06/24 05:43:25;;;;;;;;;;;;;;;51.37;12.60;96672.78;6269511;28;19921;-74
2023/06/24 05:46:27;;;;;;;;;;;;;;;49.51;13.33;96657.16;6261838;28;20067;-69
2023/06/24 05:49:31;;;;;;;;;;;;;;;44.46;11.45;96643.81;6265839;28;19920;-71
2023/06/24 05:52:37;;;;;;;;;;;;;;;39.89;13.07;96633.25;6263600;28;20003;-69
2023/06/24 05:55:43;;;;;;;;;;;;;;;39.16;12.81;96618.56;6266146;28;19920;-70
2023/06/24 05:58:49;;;;;;;;;;;;;;;37.82;13.21;96623.19;6261890;28;19921;-68
2023/06/24 06:01:53;;;;;;;;;;;;;;;39.71;12.67;96619.13;6268383;28;20541;-70
2023/06/24 06:05:02;;;;;;;;;;;;;;;43.11;11.06;96633.03;6263473;28;20426;-70
2023/06/24 06:08:10;;;;;;;;;;;;;;;45.29;9.91;96637.28;6268631;28;19982;-69
2023/06/24 06:11:15;;;;;;;;;;;;;;;46.47;9.25;96633.06;6265260;28;19920;-69
2023/06/24 06:14:16;;;;;;;;;;;;;;;48.31;9.82;96644.84;6257984;28;19942;-72
2023/06/24 06:17:18;;;;;;;;;;;;;;;50.17;6.50;96647.31;6261972;28;20208;-73
2023/06/24 06:20:19;;;;;;;;;;;;;;;50.65;6.07;96648.06;6266679;28;19927;-73
2023/06/24 06:23:25;;;;;;;;;;;;;;;49.88;7.38;96645.75;6267902;28;19920;-75
2023/06/24 06:26:29;;;;;;;;;;;;;;;49.16;8.05;96629.03;6267028;28;20393;-69
2023/06/24 06:29:30;;;;;;;;;;;;;;;50.03;7.50;96628.19;6265881;28;20301;-71
2023/06/24 06:32:31;;;;;;;;;;;;;;;51.10;7.94;96646.63;6261248;28;19921;-69
2023/06/24 06:35:35;;;;;;;;;;;;;;;51.59;7.82;96640.34;6267665;28;20523;-69
2023/06/24 06:38:40;;;;;;;;;;;;;;;47.31;8.74;96630.25;6267297;28;19921;-69
2023/06/24 06:41:47;;;;;;;;;;;;;;;41.83;11.43;96610.97;6257943;28;19916;-68
2023/06/24 06:44:53;;;;;;;;;;;;;;;37.79;13.62;96604.50;6267555;28;19921;-69
2023/06/24 06:47:57;;;;;;;;;;;;;;;34.73;14.63;96591.53;6271553;28;19921;-70
2023/06/24 06:51:03;;;;;;;;;;;;;;;32.06;15.98;96585.28;6262447;28;20070;-70
2023/06/24 06:54:10;;;;;;;;;;;;;;;30.32;17.32;96582.09;6262714;28;19982;-70
2023/06/24 06:57:13;;;;;;;;;;;;;;;29.27;17.42;96585.03;6275761;28;20338;-72
2023/06/24 07:00:17;;;;;;;;;;;;;;;31.14;16.35;96578.69;6268163;28;19927;-71
2023/06/24 07:03:18;;;;;;;;;;;;;;;36.45;12.71;96594.69;6268337;28;19916;-72
2023/06/24 07:06:21;;;;;;;;;;;;;;;40.71;10.60;96613.75;6263979;28;20387;-72
2023/06/24 07:09:25;;;;;;;;;;;;;;;44.50;9.32;96627.31;6266551;28;19920;-72
2023/06/24 07:12:26;;;;;;;;;;;;;;;46.93;7.61;96636.81;6264298;28;19927;-74
2023/06/24 07:15:31;;;;;;;;;;;;;;;43.77;8.39;96632.47;6263212;28;20664;-73
2023/06/24 07:18:37;;;;;;;;;;;;;;;38.18;11.34;96620.28;6267898;28;19931;-73
2023/06/24 07:21:41;;;;;;;;;;;;;;;34.33;13.35;96598.25;6260199;28;20027;-72
2023/06/24 07:24:47;;;;;;;;;;;;;;;37.75;11.60;96612.47;6261424;28;20063;-71
2023/06/24 07:27:51;;;;;;;;;;;;;;;42.64;9.24;96618.66;6257110;28;19927;-73
2023/06/24 07:30:55;;;;;;;;;;;;;;;45.99;8.06;96637.09;6257431;28;19921;-72
2023/06/24 07:34:02;;;;;;;;;;;;;;;48.12;7.11;96637.81;6268559;28;20398;-72
2023/06/24 07:37:05;;;;;;;;;;;;;;;48.04;6.52;96635.16;6261486;28;19928;-72
2023/06/24 07:40:08;;;;;;;;;;;;;;;42.96;9.05;96628.69;6247022;28;20446;-73
2023/06/24 07:43:12;;;;;;;;;;;;;;;37.56;11.44;96607.88;6268460;28;19921;-73
2023/06/24 07:46:17;;;;;;;;;;;;;;;33.91;13.65;96596.13;6264807;28;19921;-73
2023/06/24 07:49:21;;;;;;;;;;;;;;;31.01;15.64;96585.19;6261073;28;19928;-72
2023/06/24 07:52:27;;;;;;;;;;;;;;;30.91;15.66;96584.09;6259473;28;20334;-72
2023/06/24 07:55:29;;;;;;;;;;;;;;;35.85;13.04;96588.75;6257580;28;19924;-72
2023/06/24 07:58:30;;;;;;;;;;;;;;;40.95;10.53;96602.59;6260180;28;19936;-73
2023/06/24 08:01:32;;;;;;;;;;;;;;;45.18;8.90;96608.22;6257934;28;20414;-72
2023/06/24 08:04:34;;;;;;;;;;;;;;;48.39;7.90;96613.19;6246583;28;20460;-73
2023/06/24 08:07:39;;;;;;;;;;;;;;;50.68;6.92;96626.91;6260731;28;19920;-73
2023/06/24 08:10:44;;;;;;;;;;;;;;;51.92;5.36;96630.50;6262459;28;19920;-73
2023/06/24 08:13:48;;;;;;;;;;;;;;;51.84;6.26;96624.00;6253491;28;19950;-72
2023/06/24 08:16:52;;;;;;;;;;;;;;;51.29;6.66;96619.75;6251493;28;20015;-73
2023/06/24 08:19:59;;;;;;;;;;;;;;;48.16;8.38;96621.25;6256687;28;20329;-72
2023/06/24 08:23:03;;;;;;;;;;;;;;;43.61;9.21;96602.41;6259229;28;20360;-72
2023/06/24 08:26:04;;;;;;;;;;;;;;;39.12;12.02;96584.47;6238161;28;19940;-72
2023/06/24 08:29:08;;;;;;;;;;;;;;;36.20;13.27;96576.28;6254984;28;20344;-68
2023/06/24 08:32:12;;;;;;;;;;;;;;;34.37;14.00;96571.28;6255024;28;19921;-65
2023/06/24 08:35:15;;;;;;;;;;;;;;;32.97;14.53;96569.69;6260009;28;19924;-66
2023/06/24 08:38:19;;;;;;;;;;;;;;;31.59;15.36;96575.31;6262822;28;19928;-72
2023/06/24 08:41:24;;;;;;;;;;;;;;;30.47;15.92;96565.38;6258204;28;19916;-70
2023/06/24 08:44:28;;;;;;;;;;;;;;;29.57;16.34;96568.03;6248872;28;19928;-69
2023/06/24 08:47:30;;;;;;;;;;;;;;;28.49;17.40;96570.09;6263800;28;20314;-70
2023/06/24 08:50:39;;;;;;;;;;;;;;;29.61;16.66;96574.63;6260407;28;19989;-70
2023/06/24 08:53:43;;;;;;;;;;;;;;;34.17;13.87;96585.53;6244599;28;19921;-73
2023/06/24 08:56:48;;;;;;;;;;;;;;;36.74;12.04;96591.47;6266413;28;19981;-68
2023/06/24 08:59:52;;;;;;;;;;;;;;;35.57;12.80;96590.00;6254854;28;20820;-71
2023/06/24 09:02:56;;;;;;;;;;;;;;;33.52;14.05;96576.28;6268729;28;19935;-66
2023/06/24 09:06:01;;;;;;;;;;;;;;;32.45;14.96;96582.72;6269966;28;20407;-67
2023/06/24 09:09:04;;;;;;;;;;;;;;;32.02;15.04;96574.06;6255129;28;20076;-68
2023/06/24 09:12:10;;;;;;;;;;;;;;;31.44;15.81;96577.72;6258316;28;19924;-70
2023/06/24 09:15:15;;;;;;;;;;;;;;;30.51;16.18;96571.97;6265580;28;19921;-69
2023/06/24 09:18:19;;;;;;;;;;;;;;;29.73;16.93;96572.88;6250976;28;20333;-69
2023/06/24 09:21:30;;;;;;;;;;;;;;;28.12;18.54;96577.19;6267610;28;19920;-67
2023/06/24 09:24:34;;;;;;;;;;;;;;;26.92;19.51;96565.94;6272848;28;20024;-71
2023/06/24 09:27:38;;;;;;;;;;;;;;;25.88;20.43;96570.81;6265662;28;20026;-69
2023/06/24 09:30:41;;;;;;;;;;;;;;;25.20;21.58;96580.66;6272003;28;19920;-72
2023/06/24 09:33:44;;;;;;;;;;;;;;;24.59;21.90;96579.38;6270420;28;19921;-70
2023/06/24 09:36:54;;;;;;;;;;;;;;;24.51;22.31;96579.50;6263416;28;19921;-68
2023/06/24 09:39:57;;;;;;;;;;;;;;;24.63;23.36;96577.97;6265015;28;20408;-68
2023/06/24 09:43:00;;;;;;;;;;;;;;;24.58;23.63;96580.41;6268990;28;20039;-71
2023/06/24 09:46:06;;;;;;;;;;;;;;;24.52;23.18;96583.88;6257992;28;19921;-72
2023/06/24 09:49:09;;;;;;;;;;;;;;;24.70;23.14;96587.94;6264351;28;19921;-70
2023/06/24 09:52:15;;;;;;;;;;;;;;;25.06;23.38;96585.94;6268000;28;20405;-70
2023/06/24 09:55:18;;;;;;;;;;;;;;;25.36;22.80;96587.56;6269146;28;19920;-71
2023/06/24 09:58:21;;;;;;;;;;;;;;;25.86;22.45;96589.06;6284390;28;19920;-71
2023/06/24 10:01:24;;;;;;;;;;;;;;;26.17;22.23;96585.00;6275787;28;19924;-70
2023/06/24 10:04:29;;;;;;;;;;;;;;;26.46;21.81;96583.78;6269651;28;19975;-70
2023/06/24 10:07:32;;;;;;;;;;;;;;;26.79;21.34;96589.22;6245779;28;19921;-70
2023/06/24 10:10:36;;;;;;;;;;;;;;;26.99;22.03;96593.75;6254363;28;19920;-71
2023/06/24 10:13:39;;;;;;;;;;;;;;;26.77;21.93;96593.97;6252718;28;19920;-70
2023/06/24 10:16:44;;;;;;;;;;;;;;;26.68;22.02;96589.00;6253395;28;19924;-70
2023/06/24 10:19:47;;;;;;;;;;;;;;;26.39;22.19;96589.19;6267750;28;19928;-71
2023/06/24 10:22:52;;;;;;;;;;;;;;;26.14;22.50;96599.72;6269492;28;19924;-69
2023/06/24 10:25:57;;;;;;;;;;;;;;;25.75;23.05;96589.59;6251870;28;19928;-71
2023/06/24 10:29:05;;;;;;;;;;;;;;;25.50;23.41;96590.13;6270249;28;20015;-70
2023/06/24 10:32:08;;;;;;;;;;;;;;;25.37;23.63;96591.94;6253224;28;19920;-70
2023/06/24 10:35:29;;;;;;;;;;;;;;;25.25;23.53;96591.66;6264741;28;20325;-70
2023/06/24 10:38:32;;;;;;;;;;;;;;;25.18;23.99;96593.50;6266045;28;19921;-70
2023/06/24 10:41:35;;;;;;;;;;;;;;;25.10;23.99;96581.81;6261078;28;20023;-71
2023/06/24 10:44:48;;;;;;;;;;;;;;;24.89;23.89;96591.81;6268735;28;20432;-69
2023/06/24 10:47:56;;;;;;;;;;;;;;;24.59;24.70;96587.44;6267294;28;20341;-70
2023/06/24 10:50:59;;;;;;;;;;;;;;;24.35;25.10;96585.16;6257814;28;19969;-71
2023/06/24 10:54:01;;;;;;;;;;;;;;;24.22;25.89;96585.03;6259911;28;20423;-71
2023/06/24 10:57:04;;;;;;;;;;;;;;;23.93;25.90;96584.13;6268257;28;19928;-72
2023/06/24 11:00:06;;;;;;;;;;;;;;;23.84;25.89;96582.56;6228176;28;20332;-70
2023/06/24 11:03:18;;;;;;;;;;;;;;;24.35;25.41;96585.97;6244624;28;19921;-72
2023/06/24 11:06:22;;;;;;;;;;;;;;;25.18;24.29;96574.63;6261432;28;19986;-71
2023/06/24 11:09:30;;;;;;;;;;;;;;;25.90;23.30;96578.69;6268598;28;19920;-71
2023/06/24 11:12:37;;;;;;;;;;;;;;;26.62;22.74;96583.41;6267995;28;19936;-71
2023/06/24 11:15:42;;;;;;;;;;;;;;;27.44;21.82;96577.69;6269394;28;20299;-71
2023/06/24 11:18:46;;;;;;;;;;;;;;;28.42;21.04;96574.72;6251859;28;19925;-72
2023/06/24 11:21:50;;;;;;;;;;;;;;;29.97;19.77;96569.19;6267642;28;19916;-71
2023/06/24 11:24:56;;;;;;;;;;;;;;;31.30;18.88;96577.94;6281489;28;19924;-71
2023/06/24 11:27:59;;;;;;;;;;;;;;;31.86;17.90;96586.50;6251592;28;19924;-70
2023/06/24 11:31:07;;;;;;;;;;;;;;;32.24;17.64;96567.91;6266858;28;20070;-71
2023/06/24 11:34:10;;;;;;;;;;;;;;;32.51;18.01;96577.13;6251336;28;19931;-70
2023/06/24 11:37:14;;;;;;;;;;;;;;;32.47;17.90;96576.00;6267183;28;19954;-72
2023/06/24 11:40:19;;;;;;;;;;;;;;;31.91;17.53;96562.16;6269867;28;20010;-71
2023/06/24 11:43:26;;;;;;;;;;;;;;;31.26;18.20;96559.66;6251596;28;19928;-70
2023/06/24 11:46:36;;;;;;;;;;;;;;;30.64;17.92;96554.66;6269102;28;19921;-70
2023/06/24 11:49:55;;;;;;;;;;;;;;;30.69;18.25;96554.78;6246455;28;19947;-71
2023/06/24 11:52:59;;;;;;;;;;;;;;;31.07;18.46;96561.66;6262003;28;20011;-69
2023/06/24 11:56:02;;;;;;;;;;;;;;;31.06;18.04;96557.31;6270729;28;19984;-71
2023/06/24 11:59:18;;;;;;;;;;;;;;;30.80;18.34;96566.72;6282645;28;19955;-72
2023/06/24 12:02:22;;;;;;;;;;;;;;;30.63;18.45;96555.69;6268850;28;19962;-71
2023/06/24 12:05:28;;;;;;;;;;;;;;;30.68;18.23;96561.25;6267167;28;19924;-71
2023/06/24 12:08:32;;;;;;;;;;;;;;;30.33;18.48;96551.19;6243946;28;19962;-72
2023/06/24 12:11:35;;;;;;;;;;;;;;;30.04;18.73;96552.00;6242463;28;19927;-71
2023/06/24 12:14:38;;;;;;;;;;;;;;;29.85;18.86;96554.75;6269397;28;20011;-70
2023/06/24 12:17:41;;;;;;;;;;;;;;;29.04;19.78;96559.41;6270077;28;19927;-71
2023/06/24 12:20:46;;;;;;;;;;;;;;;28.13;20.27;96544.50;6272381;28;19920;-71
2023/06/24 12:23:52;;;;;;;;;;;;;;;27.97;20.20;96553.16;6272337;28;19993;-72
2023/06/24 12:26:56;;;;;;;;;;;;;;;28.00;20.31;96547.31;6255517;28;19981;-70
2023/06/24 12:29:59;;;;;;;;;;;;;;;28.07;19.93;96534.56;6275249;28;20539;-70
2023/06/24 12:33:03;;;;;;;;;;;;;;;28.18;19.68;96539.28;6297944;28;19942;-70
2023/06/24 12:36:07;;;;;;;;;;;;;;;27.47;20.30;96547.53;6283258;28;19950;-72
2023/06/24 12:39:10;;;;;;;;;;;;;;;26.49;20.72;96531.28;6272711;28;19927;-70
2023/06/24 12:42:14;;;;;;;;;;;;;;;25.57;21.90;96530.06;6272918;28;19966;-71
2023/06/24 12:45:16;;;;;;;;;;;;;;;25.17;21.90;96527.22;6271892;28;19921;-71
2023/06/24 12:48:19;;;;;;;;;;;;;;;25.14;21.83;96531.13;6273821;28;20300;-69
2023/06/24 12:51:23;;;;;;;;;;;;;;;24.76;22.57;96525.28;6269699;28;20007;-73
2023/06/24 12:54:26;;;;;;;;;;;;;;;24.25;22.79;96530.88;6270010;28;19947;-71
2023/06/24 12:57:29;;;;;;;;;;;;;;;23.74;23.04;96521.06;6272980;28;20066;-71
2023/06/24 13:00:33;;;;;;;;;;;;;;;23.45;23.35;96530.03;6272510;28;19954;-71
2023/06/24 13:03:36;;;;;;;;;;;;;;;23.53;23.20;96527.22;6272491;28;19954;-70
2023/06/24 13:06:39;;;;;;;;;;;;;;;23.65;22.96;96520.34;6281454;28;19962;-71
2023/06/24 13:09:43;;;;;;;;;;;;;;;23.59;23.28;96518.41;6272699;28;19920;-70
2023/06/24 13:12:46;;;;;;;;;;;;;;;23.40;23.63;96519.00;6271487;28;19973;-71
2023/06/24 13:15:50;;;;;;;;;;;;;;;23.46;23.24;96510.19;6270532;28;20340;-71
2023/06/24 13:18:54;;;;;;;;;;;;;;;23.70;23.03;96512.56;6271497;28;19954;-70
2023/06/24 13:21:58;;;;;;;;;;;;;;;23.82;22.81;96504.84;6272163;28;19920;-71
2023/06/24 13:25:01;;;;;;;;;;;;;;;23.81;22.73;96499.63;6272021;28;19927;-71
2023/06/24 13:28:04;;;;;;;;;;;;;;;23.94;22.68;96502.47;6269568;28;20244;-71
2023/06/24 13:31:07;;;;;;;;;;;;;;;23.75;22.65;96503.94;6268732;28;19924;-71
2023/06/24 13:34:11;;;;;;;;;;;;;;;23.51;22.77;96503.22;6270346;28;19920;-71
2023/06/24 13:37:14;;;;;;;;;;;;;;;23.19;23.19;96498.31;6253210;28;19928;-71
2023/06/24 13:40:17;;;;;;;;;;;;;;;23.15;23.11;96497.84;6270598;28;19920;-70
2023/06/24 13:43:20;;;;;;;;;;;;;;;22.86;23.38;96494.16;6271380;28;19935;-70
2023/06/24 13:46:24;;;;;;;;;;;;;;;22.42;23.94;96492.28;6270388;28;19962;-71
2023/06/24 13:49:27;;;;;;;;;;;;;;;22.09;24.61;96490.91;6271576;28;20089;-71
2023/06/24 13:52:31;;;;;;;;;;;;;;;21.64;25.02;96489.91;6269490;28;19920;-71
2023/06/24 13:55:36;;;;;;;;;;;;;;;21.31;25.88;96492.75;6272206;28;19920;-70
2023/06/24 13:58:39;;;;;;;;;;;;;;;21.03;26.19;96485.22;6270891;28;19934;-70
2023/06/24 14:01:42;;;;;;;;;;;;;;;20.91;26.01;96483.06;6269344;28;19921;-71
2023/06/24 14:04:47;;;;;;;;;;;;;;;20.96;25.75;96484.22;6269573;28;20010;-70
2023/06/24 14:07:51;;;;;;;;;;;;;;;21.03;26.08;96485.22;6269116;28;20285;-69
2023/06/24 14:10:54;;;;;;;;;;;;;;;21.10;26.04;96484.50;6253315;28;20019;-71
2023/06/24 14:13:57;;;;;;;;;;;;;;;21.19;26.11;96488.81;6271477;28;19921;-70
2023/06/24 14:16:59;;;;;;;;;;;;;;;21.30;25.97;96485.72;6267554;28;19928;-69
2023/06/24 14:20:03;;;;;;;;;;;;;;;21.42;26.25;96483.50;6269282;28;19920;-71
2023/06/24 14:23:05;;;;;;;;;;;;;;;21.53;26.28;96483.94;6268919;28;20336;-70
2023/06/24 14:26:09;;;;;;;;;;;;;;;21.51;26.16;96490.47;6270839;28;19935;-71
2023/06/24 14:29:12;;;;;;;;;;;;;;;21.53;26.40;96491.13;6255627;28;20011;-71
2023/06/24 14:32:15;;;;;;;;;;;;;;;21.71;26.14;96496.19;6295692;28;20438;-70
2023/06/24 14:35:19;;;;;;;;;;;;;;;21.91;26.34;96492.06;6294370;28;20436;-71
2023/06/24 14:38:23;;;;;;;;;;;;;;;21.96;26.37;96489.63;6268363;28;19935;-70
2023/06/24 14:41:26;;;;;;;;;;;;;;;22.13;25.88;96481.47;6270062;28;19962;-70
2023/06/24 14:44:30;;;;;;;;;;;;;;;22.30;26.14;96483.00;6270132;28;19934;-69
2023/06/24 14:47:34;;;;;;;;;;;;;;;22.45;26.03;96490.25;6270656;28;19921;-70
2023/06/24 14:50:40;;;;;;;;;;;;;;;22.51;26.19;96494.91;6268007;28;19932;-71
2023/06/24 14:53:43;;;;;;;;;;;;;;;22.57;25.86;96494.16;6269211;28;19920;-70
2023/06/24 14:56:47;;;;;;;;;;;;;;;22.58;25.93;96490.44;6269872;28;19955;-70
2023/06/24 15:00:02;;;;;;;;;;;;;;;22.51;26.16;96490.34;6267803;28;20391;-75
2023/06/24 15:03:07;;;;;;;;;;;;;;;22.42;26.12;96484.25;6254266;28;20042;-70
2023/06/24 15:06:10;;;;;;;;;;;;;;;22.31;26.33;96494.59;6263328;28;19928;-71
2023/06/24 15:09:13;;;;;;;;;;;;;;;22.12;26.41;96491.34;6251202;28;19928;-71
2023/06/24 15:12:17;;;;;;;;;;;;;;;21.86;26.58;96490.91;6269466;28;19969;-71
2023/06/24 15:15:21;;;;;;;;;;;;;;;21.63;26.94;96490.94;6269417;28;19921;-71
2023/06/24 15:18:25;;;;;;;;;;;;;;;21.50;27.23;96499.53;6248214;28;20337;-71
2023/06/24 15:21:28;;;;;;;;;;;;;;;21.29;27.49;96494.78;6266805;28;19920;-65
2023/06/24 15:24:32;;;;;;;;;;;;;;;21.08;27.69;96500.72;6249076;28;20007;-66
2023/06/24 15:27:36;;;;;;;;;;;;;;;20.83;27.86;96500.84;6268013;28;19920;-67
2023/06/24 15:30:39;;;;;;;;;;;;;;;20.61;28.65;96502.41;6265980;28;19928;-67
2023/06/24 15:33:43;;;;;;;;;;;;;;;20.21;28.80;96500.59;6266516;28;19924;-65
2023/06/24 15:36:46;;;;;;;;;;;;;;;19.95;29.21;96500.78;6247728;28;19924;-66
2023/06/24 15:39:48;;;;;;;;;;;;;;;19.61;29.78;96496.38;6269286;28;19969;-68
2023/06/24 15:42:53;;;;;;;;;;;;;;;19.34;29.90;96492.19;6266885;28;20009;-69
2023/06/24 15:45:55;;;;;;;;;;;;;;;19.15;30.04;96500.47;6266603;28;20424;-66
2023/06/24 15:48:58;;;;;;;;;;;;;;;18.96;30.65;96497.03;6265119;28;19920;-69
2023/06/24 15:52:01;;;;;;;;;;;;;;;18.77;30.76;96500.81;6266547;28;20285;-69
2023/06/24 15:55:05;;;;;;;;;;;;;;;18.65;31.50;96502.03;6253996;28;19944;-67
2023/06/24 15:58:09;;;;;;;;;;;;;;;18.55;32.05;96496.84;6267236;28;20449;-72
2023/06/24 16:01:13;;;;;;;;;;;;;;;18.33;32.34;96492.88;6249024;28;20030;-68